sensor_id;sensor_type;location;lat;lon;timestamp;P1;durP1;ratioP1;P2;durP2;ratioP2
56269;SDS011;42176;43.240;27.880;2022-12-18T00:01:03;3.13;;;2.22;;
56269;SDS011;42176;43.240;27.880;2022-12-18T00:03:33;3.78;;;2.60;;
56269;SDS011;42176;43.240;27.880;2022-12-18T00:05:59;3.53;;;2.70;;
56269;SDS011;42176;43.240;27.880;2022-12-18T00:08:25;3.85;;;2.08;;
56269;SDS011;42176;43.240;27.880;2022-12-18T00:10:50;4.38;;;2.20;;
56269;SDS011;42176;43.240;27.880;2022-12-18T00:13:16;4.32;;;2.47;;
56269;SDS011;42176;43.240;27.880;2022-12-18T00:15:41;4.22;;;2.55;;
56269;SDS011;42176;43.240;27.880;2022-12-18T00:18:07;3.03;;;1.90;;
56269;SDS011;42176;43.240;27.880;2022-12-18T00:20:36;2.83;;;2.00;;
56269;SDS011;42176;43.240;27.880;2022-12-18T00:23:03;3.70;;;2.10;;
56269;SDS011;42176;43.240;27.880;2022-12-18T00:25:31;4.32;;;2.22;;
56269;SDS011;42176;43.240;27.880;2022-12-18T00:28:01;3.67;;;2.08;;
56269;SDS011;42176;43.240;27.880;2022-12-18T00:30:28;2.55;;;2.10;;
56269;SDS011;42176;43.240;27.880;2022-12-18T00:32:54;3.08;;;2.10;;
56269;SDS011;42176;43.240;27.880;2022-12-18T00:35:20;4.05;;;1.88;;
56269;SDS011;42176;43.240;27.880;2022-12-18T00:37:45;2.80;;;1.92;;
56269;SDS011;42176;43.240;27.880;2022-12-18T00:40:11;3.50;;;2.13;;
56269;SDS011;42176;43.240;27.880;2022-12-18T00:42:36;2.72;;;1.63;;
56269;SDS011;42176;43.240;27.880;2022-12-18T00:45:21;2.85;;;1.67;;
56269;SDS011;42176;43.240;27.880;2022-12-18T00:47:48;3.17;;;1.80;;
56269;SDS011;42176;43.240;27.880;2022-12-18T00:50:13;2.83;;;2.00;;
56269;SDS011;42176;43.240;27.880;2022-12-18T00:52:38;3.25;;;1.98;;
56269;SDS011;42176;43.240;27.880;2022-12-18T00:55:05;4.53;;;2.28;;
56269;SDS011;42176;43.240;27.880;2022-12-18T00:57:31;2.60;;;2.08;;
56269;SDS011;42176;43.240;27.880;2022-12-18T00:59:56;3.70;;;2.28;;
56269;SDS011;42176;43.240;27.880;2022-12-18T01:02:22;2.40;;;2.03;;
56269;SDS011;42176;43.240;27.880;2022-12-18T01:04:47;4.75;;;2.17;;
56269;SDS011;42176;43.240;27.880;2022-12-18T01:07:13;2.38;;;1.65;;
56269;SDS011;42176;43.240;27.880;2022-12-18T01:09:38;4.95;;;1.98;;
56269;SDS011;42176;43.240;27.880;2022-12-18T01:12:04;4.05;;;2.15;;
56269;SDS011;42176;43.240;27.880;2022-12-18T01:14:30;2.13;;;1.83;;
56269;SDS011;42176;43.240;27.880;2022-12-18T01:16:55;2.35;;;1.85;;
56269;SDS011;42176;43.240;27.880;2022-12-18T01:19:21;2.83;;;2.33;;
56269;SDS011;42176;43.240;27.880;2022-12-18T01:21:46;2.50;;;2.13;;
56269;SDS011;42176;43.240;27.880;2022-12-18T01:24:12;3.25;;;1.90;;
56269;SDS011;42176;43.240;27.880;2022-12-18T01:26:37;3.00;;;1.95;;
56269;SDS011;42176;43.240;27.880;2022-12-18T01:29:02;4.20;;;2.17;;
56269;SDS011;42176;43.240;27.880;2022-12-18T01:31:30;3.58;;;2.10;;
56269;SDS011;42176;43.240;27.880;2022-12-18T01:33:59;3.72;;;2.05;;
56269;SDS011;42176;43.240;27.880;2022-12-18T01:36:33;5.03;;;2.65;;
56269;SDS011;42176;43.240;27.880;2022-12-18T01:39:01;8.57;;;2.88;;
56269;SDS011;42176;43.240;27.880;2022-12-18T01:41:31;4.03;;;2.15;;
56269;SDS011;42176;43.240;27.880;2022-12-18T01:47:20;3.58;;;2.17;;
56269;SDS011;42176;43.240;27.880;2022-12-18T01:49:47;3.22;;;1.95;;
56269;SDS011;42176;43.240;27.880;2022-12-18T01:52:13;4.00;;;1.83;;
56269;SDS011;42176;43.240;27.880;2022-12-18T01:54:39;3.42;;;1.92;;
56269;SDS011;42176;43.240;27.880;2022-12-18T01:57:05;3.67;;;2.00;;
56269;SDS011;42176;43.240;27.880;2022-12-18T01:59:31;2.97;;;1.92;;
56269;SDS011;42176;43.240;27.880;2022-12-18T02:01:59;2.88;;;2.00;;
56269;SDS011;42176;43.240;27.880;2022-12-18T02:04:25;2.28;;;2.00;;
56269;SDS011;42176;43.240;27.880;2022-12-18T02:06:59;3.33;;;1.90;;
56269;SDS011;42176;43.240;27.880;2022-12-18T02:12:24;2.95;;;1.70;;
56269;SDS011;42176;43.240;27.880;2022-12-18T02:17:52;3.05;;;1.85;;
56269;SDS011;42176;43.240;27.880;2022-12-18T02:20:54;1.95;;;1.55;;
56269;SDS011;42176;43.240;27.880;2022-12-18T02:26:22;3.05;;;1.80;;
56269;SDS011;42176;43.240;27.880;2022-12-18T02:28:57;2.75;;;1.65;;
56269;SDS011;42176;43.240;27.880;2022-12-18T02:31:28;2.85;;;1.73;;
56269;SDS011;42176;43.240;27.880;2022-12-18T02:34:00;3.35;;;1.65;;
56269;SDS011;42176;43.240;27.880;2022-12-18T02:36:28;2.95;;;1.70;;
56269;SDS011;42176;43.240;27.880;2022-12-18T02:38:56;3.25;;;1.70;;
56269;SDS011;42176;43.240;27.880;2022-12-18T02:41:23;2.15;;;1.58;;
56269;SDS011;42176;43.240;27.880;2022-12-18T02:43:55;2.67;;;1.90;;
56269;SDS011;42176;43.240;27.880;2022-12-18T02:49:12;2.67;;;1.92;;
56269;SDS011;42176;43.240;27.880;2022-12-18T02:59:58;2.70;;;2.03;;
56269;SDS011;42176;43.240;27.880;2022-12-18T03:03:16;1.55;;;1.45;;
56269;SDS011;42176;43.240;27.880;2022-12-18T03:05:30;3.35;;;2.05;;
56269;SDS011;42176;43.240;27.880;2022-12-18T03:08:02;2.88;;;1.95;;
56269;SDS011;42176;43.240;27.880;2022-12-18T03:10:39;6.32;;;2.22;;
56269;SDS011;42176;43.240;27.880;2022-12-18T03:13:17;3.08;;;2.03;;
56269;SDS011;42176;43.240;27.880;2022-12-18T03:15:49;3.95;;;1.95;;
56269;SDS011;42176;43.240;27.880;2022-12-18T03:18:33;2.22;;;2.00;;
56269;SDS011;42176;43.240;27.880;2022-12-18T03:21:03;2.97;;;2.17;;
56269;SDS011;42176;43.240;27.880;2022-12-18T03:23:34;2.70;;;2.05;;
56269;SDS011;42176;43.240;27.880;2022-12-18T03:26:06;2.95;;;1.90;;
56269;SDS011;42176;43.240;27.880;2022-12-18T03:28:35;2.58;;;2.08;;
56269;SDS011;42176;43.240;27.880;2022-12-18T03:31:04;2.35;;;2.15;;
56269;SDS011;42176;43.240;27.880;2022-12-18T03:33:41;2.35;;;1.70;;
56269;SDS011;42176;43.240;27.880;2022-12-18T03:36:12;3.58;;;2.00;;
56269;SDS011;42176;43.240;27.880;2022-12-18T03:38:37;5.70;;;1.90;;
56269;SDS011;42176;43.240;27.880;2022-12-18T03:49:10;2.63;;;1.77;;
56269;SDS011;42176;43.240;27.880;2022-12-18T03:52:06;1.42;;;1.33;;
56269;SDS011;42176;43.240;27.880;2022-12-18T03:54:36;3.70;;;1.55;;
56269;SDS011;42176;43.240;27.880;2022-12-18T03:57:09;10.38;;;2.28;;
56269;SDS011;42176;43.240;27.880;2022-12-18T03:59:37;2.47;;;1.85;;
56269;SDS011;42176;43.240;27.880;2022-12-18T04:02:04;2.30;;;2.05;;
56269;SDS011;42176;43.240;27.880;2022-12-18T04:04:33;3.05;;;2.03;;
56269;SDS011;42176;43.240;27.880;2022-12-18T04:07:00;4.28;;;2.50;;
56269;SDS011;42176;43.240;27.880;2022-12-18T04:09:26;5.15;;;2.30;;
56269;SDS011;42176;43.240;27.880;2022-12-18T04:11:53;2.92;;;1.75;;
56269;SDS011;42176;43.240;27.880;2022-12-18T04:14:18;4.00;;;2.47;;
56269;SDS011;42176;43.240;27.880;2022-12-18T04:16:44;3.67;;;2.42;;
56269;SDS011;42176;43.240;27.880;2022-12-18T04:19:09;3.83;;;2.08;;
56269;SDS011;42176;43.240;27.880;2022-12-18T04:21:35;4.60;;;2.85;;
56269;SDS011;42176;43.240;27.880;2022-12-18T04:24:00;4.10;;;2.08;;
56269;SDS011;42176;43.240;27.880;2022-12-18T04:26:25;5.47;;;2.75;;
56269;SDS011;42176;43.240;27.880;2022-12-18T04:28:51;4.85;;;3.28;;
56269;SDS011;42176;43.240;27.880;2022-12-18T04:31:16;8.65;;;3.00;;
56269;SDS011;42176;43.240;27.880;2022-12-18T04:33:42;5.43;;;2.75;;
56269;SDS011;42176;43.240;27.880;2022-12-18T04:36:07;4.95;;;2.75;;
56269;SDS011;42176;43.240;27.880;2022-12-18T04:38:33;4.93;;;2.85;;
56269;SDS011;42176;43.240;27.880;2022-12-18T04:40:58;4.88;;;2.55;;
56269;SDS011;42176;43.240;27.880;2022-12-18T04:43:24;6.32;;;3.88;;
56269;SDS011;42176;43.240;27.880;2022-12-18T04:45:49;9.75;;;4.60;;
56269;SDS011;42176;43.240;27.880;2022-12-18T04:48:15;5.53;;;3.55;;
56269;SDS011;42176;43.240;27.880;2022-12-18T04:50:40;7.57;;;3.65;;
56269;SDS011;42176;43.240;27.880;2022-12-18T04:53:05;8.15;;;4.30;;
56269;SDS011;42176;43.240;27.880;2022-12-18T04:55:31;6.90;;;3.60;;
56269;SDS011;42176;43.240;27.880;2022-12-18T04:57:56;6.57;;;4.00;;
56269;SDS011;42176;43.240;27.880;2022-12-18T05:00:22;6.72;;;4.03;;
56269;SDS011;42176;43.240;27.880;2022-12-18T05:02:48;8.82;;;4.55;;
56269;SDS011;42176;43.240;27.880;2022-12-18T05:05:13;9.10;;;3.70;;
56269;SDS011;42176;43.240;27.880;2022-12-18T05:07:38;7.00;;;3.78;;
56269;SDS011;42176;43.240;27.880;2022-12-18T05:10:07;9.77;;;4.10;;
56269;SDS011;42176;43.240;27.880;2022-12-18T05:12:33;7.60;;;3.75;;
56269;SDS011;42176;43.240;27.880;2022-12-18T05:14:59;7.47;;;4.25;;
56269;SDS011;42176;43.240;27.880;2022-12-18T05:17:24;8.75;;;4.47;;
56269;SDS011;42176;43.240;27.880;2022-12-18T05:19:49;7.53;;;4.63;;
56269;SDS011;42176;43.240;27.880;2022-12-18T05:22:15;10.55;;;5.15;;
56269;SDS011;42176;43.240;27.880;2022-12-18T05:24:40;15.15;;;5.43;;
56269;SDS011;42176;43.240;27.880;2022-12-18T05:27:06;14.02;;;7.40;;
56269;SDS011;42176;43.240;27.880;2022-12-18T05:29:31;12.80;;;5.88;;
56269;SDS011;42176;43.240;27.880;2022-12-18T05:31:57;10.57;;;4.80;;
56269;SDS011;42176;43.240;27.880;2022-12-18T05:34:22;11.57;;;5.70;;
56269;SDS011;42176;43.240;27.880;2022-12-18T05:36:48;10.68;;;5.40;;
56269;SDS011;42176;43.240;27.880;2022-12-18T05:39:13;11.00;;;5.88;;
56269;SDS011;42176;43.240;27.880;2022-12-18T05:41:39;19.02;;;8.68;;
56269;SDS011;42176;43.240;27.880;2022-12-18T05:44:04;9.48;;;5.63;;
56269;SDS011;42176;43.240;27.880;2022-12-18T05:46:30;10.20;;;5.25;;
56269;SDS011;42176;43.240;27.880;2022-12-18T05:48:58;10.45;;;5.20;;
56269;SDS011;42176;43.240;27.880;2022-12-18T05:51:25;9.82;;;5.78;;
56269;SDS011;42176;43.240;27.880;2022-12-18T05:53:50;9.70;;;5.05;;
56269;SDS011;42176;43.240;27.880;2022-12-18T05:56:17;12.23;;;6.82;;
56269;SDS011;42176;43.240;27.880;2022-12-18T05:58:44;15.70;;;6.57;;
56269;SDS011;42176;43.240;27.880;2022-12-18T06:03:40;7.40;;;3.72;;
56269;SDS011;42176;43.240;27.880;2022-12-18T06:06:16;15.48;;;5.80;;
56269;SDS011;42176;43.240;27.880;2022-12-18T06:08:45;12.38;;;5.93;;
56269;SDS011;42176;43.240;27.880;2022-12-18T06:11:11;14.32;;;7.13;;
56269;SDS011;42176;43.240;27.880;2022-12-18T06:13:37;17.70;;;8.20;;
56269;SDS011;42176;43.240;27.880;2022-12-18T06:16:03;10.65;;;5.10;;
56269;SDS011;42176;43.240;27.880;2022-12-18T06:18:30;15.35;;;7.13;;
56269;SDS011;42176;43.240;27.880;2022-12-18T06:20:56;14.15;;;6.85;;
56269;SDS011;42176;43.240;27.880;2022-12-18T06:23:22;17.38;;;8.80;;
56269;SDS011;42176;43.240;27.880;2022-12-18T06:25:48;17.65;;;8.73;;
56269;SDS011;42176;43.240;27.880;2022-12-18T06:28:13;18.10;;;8.88;;
56269;SDS011;42176;43.240;27.880;2022-12-18T06:30:38;17.77;;;8.60;;
56269;SDS011;42176;43.240;27.880;2022-12-18T06:33:04;17.30;;;8.18;;
56269;SDS011;42176;43.240;27.880;2022-12-18T06:35:29;20.00;;;7.97;;
56269;SDS011;42176;43.240;27.880;2022-12-18T06:37:56;15.13;;;7.80;;
56269;SDS011;42176;43.240;27.880;2022-12-18T06:40:22;18.95;;;8.32;;
56269;SDS011;42176;43.240;27.880;2022-12-18T06:42:47;17.27;;;8.98;;
56269;SDS011;42176;43.240;27.880;2022-12-18T06:45:13;18.42;;;8.88;;
56269;SDS011;42176;43.240;27.880;2022-12-18T06:47:38;18.45;;;8.95;;
56269;SDS011;42176;43.240;27.880;2022-12-18T06:50:04;18.65;;;9.80;;
56269;SDS011;42176;43.240;27.880;2022-12-18T06:52:31;23.27;;;10.50;;
56269;SDS011;42176;43.240;27.880;2022-12-18T06:54:57;21.67;;;10.07;;
56269;SDS011;42176;43.240;27.880;2022-12-18T06:57:22;24.83;;;10.20;;
56269;SDS011;42176;43.240;27.880;2022-12-18T06:59:48;19.58;;;8.75;;
56269;SDS011;42176;43.240;27.880;2022-12-18T07:02:13;13.52;;;7.38;;
56269;SDS011;42176;43.240;27.880;2022-12-18T07:04:39;20.10;;;8.57;;
56269;SDS011;42176;43.240;27.880;2022-12-18T07:07:04;25.88;;;9.70;;
56269;SDS011;42176;43.240;27.880;2022-12-18T07:09:30;23.92;;;11.30;;
56269;SDS011;42176;43.240;27.880;2022-12-18T07:11:55;19.92;;;9.57;;
56269;SDS011;42176;43.240;27.880;2022-12-18T07:14:21;20.15;;;10.38;;
56269;SDS011;42176;43.240;27.880;2022-12-18T07:16:46;27.80;;;11.45;;
56269;SDS011;42176;43.240;27.880;2022-12-18T07:19:11;22.90;;;10.23;;
56269;SDS011;42176;43.240;27.880;2022-12-18T07:21:37;20.58;;;8.70;;
56269;SDS011;42176;43.240;27.880;2022-12-18T07:24:05;24.33;;;10.85;;
56269;SDS011;42176;43.240;27.880;2022-12-18T07:26:31;17.08;;;8.55;;
56269;SDS011;42176;43.240;27.880;2022-12-18T07:28:57;21.35;;;10.35;;
56269;SDS011;42176;43.240;27.880;2022-12-18T07:31:24;26.58;;;9.90;;
56269;SDS011;42176;43.240;27.880;2022-12-18T07:33:51;20.20;;;8.43;;
56269;SDS011;42176;43.240;27.880;2022-12-18T07:36:17;22.02;;;11.15;;
56269;SDS011;42176;43.240;27.880;2022-12-18T07:38:46;26.13;;;11.00;;
56269;SDS011;42176;43.240;27.880;2022-12-18T07:41:12;19.38;;;8.88;;
56269;SDS011;42176;43.240;27.880;2022-12-18T07:43:39;23.67;;;10.77;;
56269;SDS011;42176;43.240;27.880;2022-12-18T07:46:05;19.77;;;8.75;;
56269;SDS011;42176;43.240;27.880;2022-12-18T07:48:32;17.35;;;9.48;;
56269;SDS011;42176;43.240;27.880;2022-12-18T07:51:04;23.40;;;9.25;;
56269;SDS011;42176;43.240;27.880;2022-12-18T07:53:31;25.65;;;11.02;;
56269;SDS011;42176;43.240;27.880;2022-12-18T07:55:58;22.67;;;9.50;;
56269;SDS011;42176;43.240;27.880;2022-12-18T07:58:24;24.52;;;11.73;;
56269;SDS011;42176;43.240;27.880;2022-12-18T08:00:50;27.17;;;10.93;;
56269;SDS011;42176;43.240;27.880;2022-12-18T08:03:17;38.80;;;15.82;;
56269;SDS011;42176;43.240;27.880;2022-12-18T08:05:43;32.80;;;13.88;;
56269;SDS011;42176;43.240;27.880;2022-12-18T08:08:08;27.35;;;11.35;;
56269;SDS011;42176;43.240;27.880;2022-12-18T08:10:33;24.67;;;10.60;;
56269;SDS011;42176;43.240;27.880;2022-12-18T08:12:59;21.33;;;10.55;;
56269;SDS011;42176;43.240;27.880;2022-12-18T08:15:24;24.30;;;11.55;;
56269;SDS011;42176;43.240;27.880;2022-12-18T08:17:50;21.42;;;9.18;;
56269;SDS011;42176;43.240;27.880;2022-12-18T08:20:15;25.60;;;11.32;;
56269;SDS011;42176;43.240;27.880;2022-12-18T08:22:43;29.55;;;11.88;;
56269;SDS011;42176;43.240;27.880;2022-12-18T08:25:09;21.98;;;10.60;;
56269;SDS011;42176;43.240;27.880;2022-12-18T08:27:35;18.90;;;9.60;;
56269;SDS011;42176;43.240;27.880;2022-12-18T08:30:00;23.08;;;10.07;;
56269;SDS011;42176;43.240;27.880;2022-12-18T08:32:26;26.50;;;12.10;;
56269;SDS011;42176;43.240;27.880;2022-12-18T08:34:52;22.75;;;10.93;;
56269;SDS011;42176;43.240;27.880;2022-12-18T08:37:18;30.58;;;12.15;;
56269;SDS011;42176;43.240;27.880;2022-12-18T08:39:43;26.63;;;11.50;;
56269;SDS011;42176;43.240;27.880;2022-12-18T08:42:09;24.15;;;11.13;;
56269;SDS011;42176;43.240;27.880;2022-12-18T08:44:53;18.05;;;8.30;;
56269;SDS011;42176;43.240;27.880;2022-12-18T08:47:19;26.35;;;10.23;;
56269;SDS011;42176;43.240;27.880;2022-12-18T08:49:44;23.98;;;10.82;;
56269;SDS011;42176;43.240;27.880;2022-12-18T08:52:10;26.52;;;11.30;;
56269;SDS011;42176;43.240;27.880;2022-12-18T08:54:36;21.83;;;9.73;;
56269;SDS011;42176;43.240;27.880;2022-12-18T08:57:01;24.42;;;11.15;;
56269;SDS011;42176;43.240;27.880;2022-12-18T08:59:27;23.08;;;11.90;;
56269;SDS011;42176;43.240;27.880;2022-12-18T09:01:53;27.70;;;11.00;;
56269;SDS011;42176;43.240;27.880;2022-12-18T09:04:19;26.15;;;11.75;;
56269;SDS011;42176;43.240;27.880;2022-12-18T09:06:44;19.50;;;8.95;;
56269;SDS011;42176;43.240;27.880;2022-12-18T09:09:10;30.98;;;12.82;;
56269;SDS011;42176;43.240;27.880;2022-12-18T09:11:36;23.08;;;10.50;;
56269;SDS011;42176;43.240;27.880;2022-12-18T09:14:01;24.77;;;12.55;;
56269;SDS011;42176;43.240;27.880;2022-12-18T09:16:28;29.38;;;12.52;;
56269;SDS011;42176;43.240;27.880;2022-12-18T09:18:54;24.92;;;11.27;;
56269;SDS011;42176;43.240;27.880;2022-12-18T09:21:24;18.45;;;9.43;;
56269;SDS011;42176;43.240;27.880;2022-12-18T09:23:51;25.27;;;10.18;;
56269;SDS011;42176;43.240;27.880;2022-12-18T09:26:18;24.17;;;10.77;;
56269;SDS011;42176;43.240;27.880;2022-12-18T09:28:43;21.05;;;8.35;;
56269;SDS011;42176;43.240;27.880;2022-12-18T09:31:10;24.33;;;10.30;;
56269;SDS011;42176;43.240;27.880;2022-12-18T09:33:39;23.10;;;11.23;;
56269;SDS011;42176;43.240;27.880;2022-12-18T09:36:05;28.35;;;12.70;;
56269;SDS011;42176;43.240;27.880;2022-12-18T09:38:32;33.10;;;14.02;;
56269;SDS011;42176;43.240;27.880;2022-12-18T09:43:57;22.20;;;10.57;;
56269;SDS011;42176;43.240;27.880;2022-12-18T09:46:33;24.50;;;11.60;;
56269;SDS011;42176;43.240;27.880;2022-12-18T09:49:05;29.27;;;12.40;;
56269;SDS011;42176;43.240;27.880;2022-12-18T09:51:43;27.42;;;11.15;;
56269;SDS011;42176;43.240;27.880;2022-12-18T09:54:14;25.40;;;11.63;;
56269;SDS011;42176;43.240;27.880;2022-12-18T09:56:45;22.80;;;10.57;;
56269;SDS011;42176;43.240;27.880;2022-12-18T09:59:29;24.02;;;10.52;;
56269;SDS011;42176;43.240;27.880;2022-12-18T10:01:59;25.48;;;10.63;;
56269;SDS011;42176;43.240;27.880;2022-12-18T10:04:32;29.65;;;12.20;;
56269;SDS011;42176;43.240;27.880;2022-12-18T10:07:00;28.23;;;10.88;;
56269;SDS011;42176;43.240;27.880;2022-12-18T10:09:37;20.30;;;9.18;;
56269;SDS011;42176;43.240;27.880;2022-12-18T10:12:23;24.95;;;12.00;;
56269;SDS011;42176;43.240;27.880;2022-12-18T10:15:07;28.38;;;11.50;;
56269;SDS011;42176;43.240;27.880;2022-12-18T10:27:33;21.90;;;11.07;;
56269;SDS011;42176;43.240;27.880;2022-12-18T10:29:59;16.90;;;7.35;;
56269;SDS011;42176;43.240;27.880;2022-12-18T10:32:29;14.88;;;7.07;;
56269;SDS011;42176;43.240;27.880;2022-12-18T10:34:56;23.88;;;8.82;;
56269;SDS011;42176;43.240;27.880;2022-12-18T10:37:24;27.67;;;13.30;;
56269;SDS011;42176;43.240;27.880;2022-12-18T10:40:08;23.08;;;11.65;;
56269;SDS011;42176;43.240;27.880;2022-12-18T10:42:37;20.30;;;9.80;;
56269;SDS011;42176;43.240;27.880;2022-12-18T10:45:09;21.40;;;9.38;;
56269;SDS011;42176;43.240;27.880;2022-12-18T10:47:42;27.38;;;10.90;;
56269;SDS011;42176;43.240;27.880;2022-12-18T10:50:25;10.75;;;4.85;;
56269;SDS011;42176;43.240;27.880;2022-12-18T10:52:54;24.27;;;9.70;;
56269;SDS011;42176;43.240;27.880;2022-12-18T10:55:27;33.65;;;12.13;;
56269;SDS011;42176;43.240;27.880;2022-12-18T10:57:56;23.33;;;11.33;;
56269;SDS011;42176;43.240;27.880;2022-12-18T11:06:04;24.30;;;11.32;;
56269;SDS011;42176;43.240;27.880;2022-12-18T11:08:34;24.38;;;10.32;;
56269;SDS011;42176;43.240;27.880;2022-12-18T11:11:00;31.00;;;12.18;;
56269;SDS011;42176;43.240;27.880;2022-12-18T11:13:27;16.48;;;7.93;;
56269;SDS011;42176;43.240;27.880;2022-12-18T11:15:54;21.27;;;10.05;;
56269;SDS011;42176;43.240;27.880;2022-12-18T11:21:05;30.52;;;13.55;;
56269;SDS011;42176;43.240;27.880;2022-12-18T11:23:32;30.88;;;14.07;;
56269;SDS011;42176;43.240;27.880;2022-12-18T11:25:59;35.53;;;13.85;;
56269;SDS011;42176;43.240;27.880;2022-12-18T11:28:37;34.95;;;14.50;;
56269;SDS011;42176;43.240;27.880;2022-12-18T11:31:17;26.40;;;12.35;;
56269;SDS011;42176;43.240;27.880;2022-12-18T11:33:52;27.83;;;11.30;;
56269;SDS011;42176;43.240;27.880;2022-12-18T11:36:24;26.20;;;11.23;;
56269;SDS011;42176;43.240;27.880;2022-12-18T11:38:53;32.80;;;12.60;;
56269;SDS011;42176;43.240;27.880;2022-12-18T11:44:40;25.42;;;10.13;;
56269;SDS011;42176;43.240;27.880;2022-12-18T11:47:13;30.83;;;12.35;;
56269;SDS011;42176;43.240;27.880;2022-12-18T11:49:41;25.13;;;9.90;;
56269;SDS011;42176;43.240;27.880;2022-12-18T11:54:41;35.22;;;13.63;;
56269;SDS011;42176;43.240;27.880;2022-12-18T12:24:12;21.80;;;10.32;;
56269;SDS011;42176;43.240;27.880;2022-12-18T12:37:24;18.55;;;7.60;;
56269;SDS011;42176;43.240;27.880;2022-12-18T12:39:51;16.10;;;8.60;;
56269;SDS011;42176;43.240;27.880;2022-12-18T12:45:37;8.75;;;5.10;;
56269;SDS011;42176;43.240;27.880;2022-12-18T12:51:22;8.02;;;5.38;;
56269;SDS011;42176;43.240;27.880;2022-12-18T12:54:00;12.48;;;5.30;;
56269;SDS011;42176;43.240;27.880;2022-12-18T12:59:36;11.65;;;4.80;;
56269;SDS011;42176;43.240;27.880;2022-12-18T13:05:05;8.60;;;4.65;;
56269;SDS011;42176;43.240;27.880;2022-12-18T13:08:08;7.88;;;4.32;;
56269;SDS011;42176;43.240;27.880;2022-12-18T13:10:34;5.43;;;4.35;;
56269;SDS011;42176;43.240;27.880;2022-12-18T13:13:06;4.65;;;3.40;;
56269;SDS011;42176;43.240;27.880;2022-12-18T13:15:41;7.43;;;2.90;;
56269;SDS011;42176;43.240;27.880;2022-12-18T13:20:38;7.13;;;4.45;;
56269;SDS011;42176;43.240;27.880;2022-12-18T13:25:49;7.68;;;3.78;;
56269;SDS011;42176;43.240;27.880;2022-12-18T13:31:11;8.73;;;3.95;;
56269;SDS011;42176;43.240;27.880;2022-12-18T13:33:40;9.57;;;3.42;;
56269;SDS011;42176;43.240;27.880;2022-12-18T13:39:36;7.82;;;3.97;;
56269;SDS011;42176;43.240;27.880;2022-12-18T13:41:43;5.43;;;3.60;;
56269;SDS011;42176;43.240;27.880;2022-12-18T13:44:33;7.03;;;3.97;;
56269;SDS011;42176;43.240;27.880;2022-12-18T13:47:00;7.30;;;4.03;;
56269;SDS011;42176;43.240;27.880;2022-12-18T13:54:58;7.82;;;3.53;;
56269;SDS011;42176;43.240;27.880;2022-12-18T13:57:30;6.75;;;3.30;;
56269;SDS011;42176;43.240;27.880;2022-12-18T14:02:44;7.93;;;3.97;;
56269;SDS011;42176;43.240;27.880;2022-12-18T14:05:23;7.25;;;4.28;;
56269;SDS011;42176;43.240;27.880;2022-12-18T14:07:50;9.00;;;5.05;;
56269;SDS011;42176;43.240;27.880;2022-12-18T14:10:16;11.93;;;5.18;;
56269;SDS011;42176;43.240;27.880;2022-12-18T14:12:44;10.70;;;4.63;;
56269;SDS011;42176;43.240;27.880;2022-12-18T14:20:58;8.15;;;4.55;;
56269;SDS011;42176;43.240;27.880;2022-12-18T14:26:19;10.02;;;4.63;;
56269;SDS011;42176;43.240;27.880;2022-12-18T14:28:47;6.47;;;3.17;;
56269;SDS011;42176;43.240;27.880;2022-12-18T14:31:31;9.98;;;4.95;;
56269;SDS011;42176;43.240;27.880;2022-12-18T14:33:57;6.93;;;4.38;;
56269;SDS011;42176;43.240;27.880;2022-12-18T14:36:24;6.38;;;4.18;;
56269;SDS011;42176;43.240;27.880;2022-12-18T14:38:51;9.73;;;5.18;;
56269;SDS011;42176;43.240;27.880;2022-12-18T14:41:21;15.57;;;6.00;;
56269;SDS011;42176;43.240;27.880;2022-12-18T14:43:48;10.63;;;5.30;;
56269;SDS011;42176;43.240;27.880;2022-12-18T14:46:25;14.38;;;6.07;;
56269;SDS011;42176;43.240;27.880;2022-12-18T14:48:54;12.95;;;6.38;;
56269;SDS011;42176;43.240;27.880;2022-12-18T14:51:31;10.55;;;4.75;;
56269;SDS011;42176;43.240;27.880;2022-12-18T14:53:59;12.02;;;6.15;;
56269;SDS011;42176;43.240;27.880;2022-12-18T15:01:35;7.30;;;4.75;;
56269;SDS011;42176;43.240;27.880;2022-12-18T15:04:03;11.88;;;4.47;;
56269;SDS011;42176;43.240;27.880;2022-12-18T15:09:00;8.80;;;4.10;;
56269;SDS011;42176;43.240;27.880;2022-12-18T15:14:30;13.02;;;5.93;;
56269;SDS011;42176;43.240;27.880;2022-12-18T15:17:03;13.05;;;4.53;;
56269;SDS011;42176;43.240;27.880;2022-12-18T15:19:38;14.18;;;5.35;;
56269;SDS011;42176;43.240;27.880;2022-12-18T15:22:17;14.18;;;6.43;;
56269;SDS011;42176;43.240;27.880;2022-12-18T15:24:45;10.90;;;5.38;;
56269;SDS011;42176;43.240;27.880;2022-12-18T15:30:03;12.40;;;5.88;;
56269;SDS011;42176;43.240;27.880;2022-12-18T15:32:43;14.70;;;7.07;;
56269;SDS011;42176;43.240;27.880;2022-12-18T15:37:41;10.98;;;5.43;;
56269;SDS011;42176;43.240;27.880;2022-12-18T15:40:08;16.42;;;6.47;;
56269;SDS011;42176;43.240;27.880;2022-12-18T15:42:37;11.48;;;5.70;;
56269;SDS011;42176;43.240;27.880;2022-12-18T15:45:21;10.23;;;5.10;;
56269;SDS011;42176;43.240;27.880;2022-12-18T15:47:47;9.63;;;5.95;;
56269;SDS011;42176;43.240;27.880;2022-12-18T15:50:12;7.40;;;4.10;;
56269;SDS011;42176;43.240;27.880;2022-12-18T15:52:41;10.80;;;4.95;;
56269;SDS011;42176;43.240;27.880;2022-12-18T15:55:19;9.40;;;4.32;;
56269;SDS011;42176;43.240;27.880;2022-12-18T15:58:05;12.70;;;6.10;;
56269;SDS011;42176;43.240;27.880;2022-12-18T16:00:32;9.63;;;5.45;;
56269;SDS011;42176;43.240;27.880;2022-12-18T16:02:59;11.18;;;6.45;;
56269;SDS011;42176;43.240;27.880;2022-12-18T16:05:24;11.73;;;5.70;;
56269;SDS011;42176;43.240;27.880;2022-12-18T16:07:52;14.02;;;6.30;;
56269;SDS011;42176;43.240;27.880;2022-12-18T16:10:17;11.68;;;5.30;;
56269;SDS011;42176;43.240;27.880;2022-12-18T16:12:43;12.18;;;6.43;;
56269;SDS011;42176;43.240;27.880;2022-12-18T16:15:10;10.30;;;4.47;;
56269;SDS011;42176;43.240;27.880;2022-12-18T16:17:40;13.55;;;6.63;;
56269;SDS011;42176;43.240;27.880;2022-12-18T16:20:17;10.07;;;5.43;;
56269;SDS011;42176;43.240;27.880;2022-12-18T16:22:45;12.70;;;6.07;;
56269;SDS011;42176;43.240;27.880;2022-12-18T16:25:16;10.43;;;5.85;;
56269;SDS011;42176;43.240;27.880;2022-12-18T16:27:46;8.90;;;4.40;;
56269;SDS011;42176;43.240;27.880;2022-12-18T16:30:15;11.77;;;5.72;;
56269;SDS011;42176;43.240;27.880;2022-12-18T16:32:46;8.10;;;4.80;;
56269;SDS011;42176;43.240;27.880;2022-12-18T16:35:12;12.13;;;4.80;;
56269;SDS011;42176;43.240;27.880;2022-12-18T16:37:39;12.75;;;7.03;;
56269;SDS011;42176;43.240;27.880;2022-12-18T16:40:09;14.15;;;6.28;;
56269;SDS011;42176;43.240;27.880;2022-12-18T16:42:37;10.82;;;4.07;;
56269;SDS011;42176;43.240;27.880;2022-12-18T16:45:04;6.95;;;3.80;;
56269;SDS011;42176;43.240;27.880;2022-12-18T16:47:31;7.10;;;4.25;;
56269;SDS011;42176;43.240;27.880;2022-12-18T16:49:57;8.98;;;4.38;;
56269;SDS011;42176;43.240;27.880;2022-12-18T16:52:23;9.73;;;4.60;;
56269;SDS011;42176;43.240;27.880;2022-12-18T16:54:48;7.38;;;5.07;;
56269;SDS011;42176;43.240;27.880;2022-12-18T16:57:15;6.97;;;3.50;;
56269;SDS011;42176;43.240;27.880;2022-12-18T16:59:41;8.88;;;4.07;;
56269;SDS011;42176;43.240;27.880;2022-12-18T17:02:14;6.68;;;4.35;;
56269;SDS011;42176;43.240;27.880;2022-12-18T17:04:44;6.60;;;4.15;;
56269;SDS011;42176;43.240;27.880;2022-12-18T17:07:10;14.38;;;6.40;;